sensor_id;sensor_type;location;lat;lon;timestamp;temperature;humidity
33093;DHT22;19456;46.104;12.908;2022-12-18T00:00:41;1.80;99.90
33093;DHT22;19456;46.104;12.908;2022-12-18T00:03:07;1.80;99.90
33093;DHT22;19456;46.104;12.908;2022-12-18T00:05:35;1.90;99.90
33093;DHT22;19456;46.104;12.908;2022-12-18T00:08:01;2.10;99.90
33093;DHT22;19456;46.104;12.908;2022-12-18T00:10:27;2.20;99.90
33093;DHT22;19456;46.104;12.908;2022-12-18T00:12:52;2.30;99.90
33093;DHT22;19456;46.104;12.908;2022-12-18T00:15:18;2.30;99.90
33093;DHT22;19456;46.104;12.908;2022-12-18T00:17:44;2.40;99.90
33093;DHT22;19456;46.104;12.908;2022-12-18T00:20:09;2.60;99.90
33093;DHT22;19456;46.104;12.908;2022-12-18T00:22:35;2.70;99.90
33093;DHT22;19456;46.104;12.908;2022-12-18T00:25:00;2.50;99.90
33093;DHT22;19456;46.104;12.908;2022-12-18T00:27:26;2.50;99.90
33093;DHT22;19456;46.104;12.908;2022-12-18T00:29:52;2.50;99.90
33093;DHT22;19456;46.104;12.908;2022-12-18T00:32:17;2.40;99.90
33093;DHT22;19456;46.104;12.908;2022-12-18T00:34:43;2.20;99.90
33093;DHT22;19456;46.104;12.908;2022-12-18T00:37:09;2.20;99.90
33093;DHT22;19456;46.104;12.908;2022-12-18T00:39:34;2.30;99.90
33093;DHT22;19456;46.104;12.908;2022-12-18T00:42:00;2.30;99.90
33093;DHT22;19456;46.104;12.908;2022-12-18T00:44:44;2.30;99.90
33093;DHT22;19456;46.104;12.908;2022-12-18T00:47:09;2.30;99.90
33093;DHT22;19456;46.104;12.908;2022-12-18T00:49:35;2.20;99.90
33093;DHT22;19456;46.104;12.908;2022-12-18T00:52:00;2.10;99.90
33093;DHT22;19456;46.104;12.908;2022-12-18T00:54:26;2.10;99.90
33093;DHT22;19456;46.104;12.908;2022-12-18T00:56:52;2.00;99.90
33093;DHT22;19456;46.104;12.908;2022-12-18T00:59:17;2.00;99.90
33093;DHT22;19456;46.104;12.908;2022-12-18T01:01:43;1.90;99.90
33093;DHT22;19456;46.104;12.908;2022-12-18T01:04:09;1.80;99.90
33093;DHT22;19456;46.104;12.908;2022-12-18T01:06:35;1.90;99.90
33093;DHT22;19456;46.104;12.908;2022-12-18T01:09:01;1.90;99.90
33093;DHT22;19456;46.104;12.908;2022-12-18T01:11:26;1.80;99.90
33093;DHT22;19456;46.104;12.908;2022-12-18T01:13:52;1.90;99.90
33093;DHT22;19456;46.104;12.908;2022-12-18T01:16:18;1.80;99.90
33093;DHT22;19456;46.104;12.908;2022-12-18T01:18:44;1.80;99.90
33093;DHT22;19456;46.104;12.908;2022-12-18T01:21:11;1.70;99.90
33093;DHT22;19456;46.104;12.908;2022-12-18T01:23:37;1.70;99.90
33093;DHT22;19456;46.104;12.908;2022-12-18T01:26:07;1.70;99.90
33093;DHT22;19456;46.104;12.908;2022-12-18T01:28:32;1.70;99.90
33093;DHT22;19456;46.104;12.908;2022-12-18T01:31:08;1.70;99.90
33093;DHT22;19456;46.104;12.908;2022-12-18T01:33:34;1.70;99.90
33093;DHT22;19456;46.104;12.908;2022-12-18T01:35:59;1.80;99.90
33093;DHT22;19456;46.104;12.908;2022-12-18T01:38:25;2.00;99.90
33093;DHT22;19456;46.104;12.908;2022-12-18T01:40:56;2.30;99.90
33093;DHT22;19456;46.104;12.908;2022-12-18T01:43:22;2.40;99.90
33093;DHT22;19456;46.104;12.908;2022-12-18T01:45:47;2.50;99.90
33093;DHT22;19456;46.104;12.908;2022-12-18T01:48:13;2.60;99.90
33093;DHT22;19456;46.104;12.908;2022-12-18T01:50:39;2.40;99.90
33093;DHT22;19456;46.104;12.908;2022-12-18T01:55:32;2.20;99.90
33093;DHT22;19456;46.104;12.908;2022-12-18T01:58:00;2.10;99.90
33093;DHT22;19456;46.104;12.908;2022-12-18T02:00:26;2.10;99.90
33093;DHT22;19456;46.104;12.908;2022-12-18T02:02:52;2.00;99.90
33093;DHT22;19456;46.104;12.908;2022-12-18T02:05:44;1.80;99.90
33093;DHT22;19456;46.104;12.908;2022-12-18T02:11:11;1.50;99.90
33093;DHT22;19456;46.104;12.908;2022-12-18T02:13:41;1.40;99.90
33093;DHT22;19456;46.104;12.908;2022-12-18T02:18:44;1.40;99.90
33093;DHT22;19456;46.104;12.908;2022-12-18T02:24:39;1.10;99.90
33093;DHT22;19456;46.104;12.908;2022-12-18T02:26:51;1.20;99.90
33093;DHT22;19456;46.104;12.908;2022-12-18T02:29:41;1.10;99.90
33093;DHT22;19456;46.104;12.908;2022-12-18T02:32:06;1.10;99.90
33093;DHT22;19456;46.104;12.908;2022-12-18T02:34:34;1.20;99.90
33093;DHT22;19456;46.104;12.908;2022-12-18T02:37:03;1.20;99.90
33093;DHT22;19456;46.104;12.908;2022-12-18T02:39:30;1.20;99.90
33093;DHT22;19456;46.104;12.908;2022-12-18T02:41:57;1.00;99.90
33093;DHT22;19456;46.104;12.908;2022-12-18T02:44:23;1.00;99.90
33093;DHT22;19456;46.104;12.908;2022-12-18T02:46:49;1.00;99.90
33093;DHT22;19456;46.104;12.908;2022-12-18T02:56:57;1.10;99.90
33093;DHT22;19456;46.104;12.908;2022-12-18T02:59:30;0.90;99.90
33093;DHT22;19456;46.104;12.908;2022-12-18T03:02:02;0.80;99.90
33093;DHT22;19456;46.104;12.908;2022-12-18T03:04:34;0.80;99.90
33093;DHT22;19456;46.104;12.908;2022-12-18T03:07:02;0.80;99.90
33093;DHT22;19456;46.104;12.908;2022-12-18T03:09:33;0.90;99.90
33093;DHT22;19456;46.104;12.908;2022-12-18T03:12:08;0.90;99.90
33093;DHT22;19456;46.104;12.908;2022-12-18T03:17:22;1.10;99.90
33093;DHT22;19456;46.104;12.908;2022-12-18T03:19:48;1.00;99.90
33093;DHT22;19456;46.104;12.908;2022-12-18T03:22:14;0.90;99.90
33093;DHT22;19456;46.104;12.908;2022-12-18T03:24:40;0.80;99.90
33093;DHT22;19456;46.104;12.908;2022-12-18T03:27:08;0.80;99.90
33093;DHT22;19456;46.104;12.908;2022-12-18T03:29:38;0.90;99.90
33093;DHT22;19456;46.104;12.908;2022-12-18T03:32:06;1.00;99.90
33093;DHT22;19456;46.104;12.908;2022-12-18T03:34:33;1.10;99.90
33093;DHT22;19456;46.104;12.908;2022-12-18T03:37:00;1.30;99.90
33093;DHT22;19456;46.104;12.908;2022-12-18T03:39:26;1.50;99.90
33093;DHT22;19456;46.104;12.908;2022-12-18T03:42:41;1.70;99.90
33093;DHT22;19456;46.104;12.908;2022-12-18T03:44:45;1.70;99.90
33093;DHT22;19456;46.104;12.908;2022-12-18T03:47:32;1.80;99.90
33093;DHT22;19456;46.104;12.908;2022-12-18T03:50:03;1.90;99.90
33093;DHT22;19456;46.104;12.908;2022-12-18T03:54:57;2.00;99.90
33093;DHT22;19456;46.104;12.908;2022-12-18T03:57:24;2.10;99.90
33093;DHT22;19456;46.104;12.908;2022-12-18T03:59:52;2.10;99.90
33093;DHT22;19456;46.104;12.908;2022-12-18T04:02:19;2.00;99.90
33093;DHT22;19456;46.104;12.908;2022-12-18T04:04:46;1.90;99.90
33093;DHT22;19456;46.104;12.908;2022-12-18T04:07:12;1.90;99.90
33093;DHT22;19456;46.104;12.908;2022-12-18T04:09:38;1.90;99.90
33093;DHT22;19456;46.104;12.908;2022-12-18T04:12:05;1.90;99.90
33093;DHT22;19456;46.104;12.908;2022-12-18T04:14:31;2.20;99.90
33093;DHT22;19456;46.104;12.908;2022-12-18T04:17:01;2.40;99.90
33093;DHT22;19456;46.104;12.908;2022-12-18T04:19:26;2.50;99.90
33093;DHT22;19456;46.104;12.908;2022-12-18T04:21:52;2.50;99.90
33093;DHT22;19456;46.104;12.908;2022-12-18T04:24:17;2.60;99.90
33093;DHT22;19456;46.104;12.908;2022-12-18T04:26:43;2.60;99.90
33093;DHT22;19456;46.104;12.908;2022-12-18T04:29:08;2.60;99.90
33093;DHT22;19456;46.104;12.908;2022-12-18T04:31:34;2.50;99.90
33093;DHT22;19456;46.104;12.908;2022-12-18T04:34:00;2.40;99.90
33093;DHT22;19456;46.104;12.908;2022-12-18T04:36:25;2.40;99.90
33093;DHT22;19456;46.104;12.908;2022-12-18T04:38:51;2.70;99.90
33093;DHT22;19456;46.104;12.908;2022-12-18T04:41:16;2.90;99.90
33093;DHT22;19456;46.104;12.908;2022-12-18T04:43:42;2.80;99.90
33093;DHT22;19456;46.104;12.908;2022-12-18T04:46:08;2.90;99.90
33093;DHT22;19456;46.104;12.908;2022-12-18T04:48:34;2.90;99.90
33093;DHT22;19456;46.104;12.908;2022-12-18T04:51:00;2.90;99.90
33093;DHT22;19456;46.104;12.908;2022-12-18T04:53:25;3.10;99.90
33093;DHT22;19456;46.104;12.908;2022-12-18T04:56:01;3.10;99.90
33093;DHT22;19456;46.104;12.908;2022-12-18T04:58:26;3.00;99.90
33093;DHT22;19456;46.104;12.908;2022-12-18T05:00:52;3.10;99.90
33093;DHT22;19456;46.104;12.908;2022-12-18T05:03:17;2.60;99.90
33093;DHT22;19456;46.104;12.908;2022-12-18T05:05:43;2.00;99.90
33093;DHT22;19456;46.104;12.908;2022-12-18T05:08:09;2.00;99.90
33093;DHT22;19456;46.104;12.908;2022-12-18T05:10:34;1.90;99.90
33093;DHT22;19456;46.104;12.908;2022-12-18T05:13:00;1.80;99.90
33093;DHT22;19456;46.104;12.908;2022-12-18T05:15:29;1.70;99.90
33093;DHT22;19456;46.104;12.908;2022-12-18T05:17:56;1.40;99.90
33093;DHT22;19456;46.104;12.908;2022-12-18T05:20:21;1.30;99.90
33093;DHT22;19456;46.104;12.908;2022-12-18T05:22:47;1.20;99.90
33093;DHT22;19456;46.104;12.908;2022-12-18T05:25:12;1.30;99.90
33093;DHT22;19456;46.104;12.908;2022-12-18T05:27:38;1.30;99.90
33093;DHT22;19456;46.104;12.908;2022-12-18T05:30:03;1.30;99.90
33093;DHT22;19456;46.104;12.908;2022-12-18T05:32:29;1.40;99.90
33093;DHT22;19456;46.104;12.908;2022-12-18T05:34:55;1.40;99.90
33093;DHT22;19456;46.104;12.908;2022-12-18T05:37:22;1.40;99.90
33093;DHT22;19456;46.104;12.908;2022-12-18T05:39:48;1.50;99.90
33093;DHT22;19456;46.104;12.908;2022-12-18T05:42:13;1.70;99.90
33093;DHT22;19456;46.104;12.908;2022-12-18T05:44:39;1.90;99.90
33093;DHT22;19456;46.104;12.908;2022-12-18T05:47:05;2.00;99.90
33093;DHT22;19456;46.104;12.908;2022-12-18T05:49:31;1.90;99.90
33093;DHT22;19456;46.104;12.908;2022-12-18T05:51:58;1.70;99.90
33093;DHT22;19456;46.104;12.908;2022-12-18T05:54:23;1.60;99.90
33093;DHT22;19456;46.104;12.908;2022-12-18T05:56:49;1.70;99.90
33093;DHT22;19456;46.104;12.908;2022-12-18T05:59:15;1.50;99.90
33093;DHT22;19456;46.104;12.908;2022-12-18T06:01:40;1.50;99.90
33093;DHT22;19456;46.104;12.908;2022-12-18T06:04:06;1.40;99.90
33093;DHT22;19456;46.104;12.908;2022-12-18T06:06:31;1.40;99.90
33093;DHT22;19456;46.104;12.908;2022-12-18T06:08:58;1.60;99.90
33093;DHT22;19456;46.104;12.908;2022-12-18T06:11:25;1.60;99.90
33093;DHT22;19456;46.104;12.908;2022-12-18T06:13:52;1.40;99.90
33093;DHT22;19456;46.104;12.908;2022-12-18T06:16:17;1.20;99.90
33093;DHT22;19456;46.104;12.908;2022-12-18T06:18:43;1.10;99.90
33093;DHT22;19456;46.104;12.908;2022-12-18T06:21:09;1.00;99.90
33093;DHT22;19456;46.104;12.908;2022-12-18T06:23:35;1.00;99.90
33093;DHT22;19456;46.104;12.908;2022-12-18T06:26:06;1.10;99.90
33093;DHT22;19456;46.104;12.908;2022-12-18T06:28:32;1.10;99.90
33093;DHT22;19456;46.104;12.908;2022-12-18T06:30:58;1.00;99.90
33093;DHT22;19456;46.104;12.908;2022-12-18T06:33:25;1.10;99.90
33093;DHT22;19456;46.104;12.908;2022-12-18T06:35:52;1.10;99.90
33093;DHT22;19456;46.104;12.908;2022-12-18T06:38:18;1.20;99.90
33093;DHT22;19456;46.104;12.908;2022-12-18T06:40:43;1.20;99.90
33093;DHT22;19456;46.104;12.908;2022-12-18T06:43:09;1.30;99.90
33093;DHT22;19456;46.104;12.908;2022-12-18T06:45:34;1.40;99.90
33093;DHT22;19456;46.104;12.908;2022-12-18T06:48:00;1.40;99.90
33093;DHT22;19456;46.104;12.908;2022-12-18T06:50:26;1.60;99.90
33093;DHT22;19456;46.104;12.908;2022-12-18T06:52:51;1.80;99.90
33093;DHT22;19456;46.104;12.908;2022-12-18T06:55:17;2.00;99.90
33093;DHT22;19456;46.104;12.908;2022-12-18T06:57:43;2.00;99.90
33093;DHT22;19456;46.104;12.908;2022-12-18T07:00:08;2.00;99.90
33093;DHT22;19456;46.104;12.908;2022-12-18T07:02:34;2.10;99.90
33093;DHT22;19456;46.104;12.908;2022-12-18T07:05:00;2.20;99.90
33093;DHT22;19456;46.104;12.908;2022-12-18T07:07:25;2.30;99.90
33093;DHT22;19456;46.104;12.908;2022-12-18T07:09:51;2.40;99.90
33093;DHT22;19456;46.104;12.908;2022-12-18T07:12:17;2.40;99.90
33093;DHT22;19456;46.104;12.908;2022-12-18T07:14:42;2.40;99.90
33093;DHT22;19456;46.104;12.908;2022-12-18T07:17:08;2.40;99.90
33093;DHT22;19456;46.104;12.908;2022-12-18T07:19:34;2.50;99.90
33093;DHT22;19456;46.104;12.908;2022-12-18T07:21:59;2.70;99.90
33093;DHT22;19456;46.104;12.908;2022-12-18T07:24:25;2.70;99.90
33093;DHT22;19456;46.104;12.908;2022-12-18T07:26:51;2.50;99.90
33093;DHT22;19456;46.104;12.908;2022-12-18T07:29:17;2.40;99.90
33093;DHT22;19456;46.104;12.908;2022-12-18T07:31:42;2.40;99.90
33093;DHT22;19456;46.104;12.908;2022-12-18T07:34:11;2.30;99.90
33093;DHT22;19456;46.104;12.908;2022-12-18T07:36:37;2.30;99.90
33093;DHT22;19456;46.104;12.908;2022-12-18T07:39:03;2.10;99.90
33093;DHT22;19456;46.104;12.908;2022-12-18T07:41:29;2.10;99.90
33093;DHT22;19456;46.104;12.908;2022-12-18T07:43:54;2.00;99.90
33093;DHT22;19456;46.104;12.908;2022-12-18T07:46:20;1.90;99.90
33093;DHT22;19456;46.104;12.908;2022-12-18T07:48:45;2.00;99.90
33093;DHT22;19456;46.104;12.908;2022-12-18T07:51:11;2.00;99.90
33093;DHT22;19456;46.104;12.908;2022-12-18T07:53:37;1.90;99.90
33093;DHT22;19456;46.104;12.908;2022-12-18T07:56:04;1.80;99.90
33093;DHT22;19456;46.104;12.908;2022-12-18T07:58:30;1.90;99.90
33093;DHT22;19456;46.104;12.908;2022-12-18T08:01:06;2.00;99.90
33093;DHT22;19456;46.104;12.908;2022-12-18T08:03:32;1.90;99.90
33093;DHT22;19456;46.104;12.908;2022-12-18T08:06:02;1.90;99.90
33093;DHT22;19456;46.104;12.908;2022-12-18T08:08:28;2.10;99.90
33093;DHT22;19456;46.104;12.908;2022-12-18T08:10:53;2.30;99.90
33093;DHT22;19456;46.104;12.908;2022-12-18T08:13:19;2.30;99.90
33093;DHT22;19456;46.104;12.908;2022-12-18T08:15:45;2.30;99.90
33093;DHT22;19456;46.104;12.908;2022-12-18T08:18:10;2.40;99.90
33093;DHT22;19456;46.104;12.908;2022-12-18T08:20:36;2.60;99.90
33093;DHT22;19456;46.104;12.908;2022-12-18T08:23:01;2.70;99.90
33093;DHT22;19456;46.104;12.908;2022-12-18T08:25:27;2.80;99.90
33093;DHT22;19456;46.104;12.908;2022-12-18T08:27:52;2.80;99.90
33093;DHT22;19456;46.104;12.908;2022-12-18T08:30:19;2.90;99.90
33093;DHT22;19456;46.104;12.908;2022-12-18T08:32:45;3.00;99.90
33093;DHT22;19456;46.104;12.908;2022-12-18T08:35:10;3.20;99.90
33093;DHT22;19456;46.104;12.908;2022-12-18T08:37:37;3.30;99.90
33093;DHT22;19456;46.104;12.908;2022-12-18T08:40:03;3.40;99.90
33093;DHT22;19456;46.104;12.908;2022-12-18T08:42:28;3.50;99.90
33093;DHT22;19456;46.104;12.908;2022-12-18T08:45:12;3.50;99.90
33093;DHT22;19456;46.104;12.908;2022-12-18T08:47:38;3.50;99.90
33093;DHT22;19456;46.104;12.908;2022-12-18T08:50:04;3.70;99.90
33093;DHT22;19456;46.104;12.908;2022-12-18T08:52:31;3.90;99.90
33093;DHT22;19456;46.104;12.908;2022-12-18T08:54:56;4.10;99.90
33093;DHT22;19456;46.104;12.908;2022-12-18T08:57:22;4.20;99.90
33093;DHT22;19456;46.104;12.908;2022-12-18T08:59:47;4.40;99.90
33093;DHT22;19456;46.104;12.908;2022-12-18T09:02:13;4.70;99.90
33093;DHT22;19456;46.104;12.908;2022-12-18T09:04:39;4.80;99.90
33093;DHT22;19456;46.104;12.908;2022-12-18T09:07:05;4.90;99.90
33093;DHT22;19456;46.104;12.908;2022-12-18T09:09:30;5.00;99.90
33093;DHT22;19456;46.104;12.908;2022-12-18T09:11:56;5.10;99.90
33093;DHT22;19456;46.104;12.908;2022-12-18T09:14:21;5.20;99.90
33093;DHT22;19456;46.104;12.908;2022-12-18T09:16:47;5.30;99.90
33093;DHT22;19456;46.104;12.908;2022-12-18T09:19:12;5.30;99.90
33093;DHT22;19456;46.104;12.908;2022-12-18T09:21:38;5.50;99.90
33093;DHT22;19456;46.104;12.908;2022-12-18T09:24:04;5.50;99.90
33093;DHT22;19456;46.104;12.908;2022-12-18T09:26:30;5.60;99.90
33093;DHT22;19456;46.104;12.908;2022-12-18T09:28:56;5.70;99.90
33093;DHT22;19456;46.104;12.908;2022-12-18T09:31:22;5.70;99.90
33093;DHT22;19456;46.104;12.908;2022-12-18T09:33:48;5.70;99.90
33093;DHT22;19456;46.104;12.908;2022-12-18T09:36:14;5.80;99.90
33093;DHT22;19456;46.104;12.908;2022-12-18T09:38:40;5.80;99.90
33093;DHT22;19456;46.104;12.908;2022-12-18T09:43:43;5.90;99.90
33093;DHT22;19456;46.104;12.908;2022-12-18T09:46:10;6.00;99.90
33093;DHT22;19456;46.104;12.908;2022-12-18T09:48:41;6.10;99.90
33093;DHT22;19456;46.104;12.908;2022-12-18T09:51:41;6.20;99.90
33093;DHT22;19456;46.104;12.908;2022-12-18T09:54:21;6.20;99.90
33093;DHT22;19456;46.104;12.908;2022-12-18T09:56:45;6.30;99.90
33093;DHT22;19456;46.104;12.908;2022-12-18T10:01:48;6.50;99.90
33093;DHT22;19456;46.104;12.908;2022-12-18T10:04:13;6.50;99.90
33093;DHT22;19456;46.104;12.908;2022-12-18T10:06:42;6.50;99.90
33093;DHT22;19456;46.104;12.908;2022-12-18T10:12:07;6.70;99.90
33093;DHT22;19456;46.104;12.908;2022-12-18T10:17:13;6.80;99.90
33093;DHT22;19456;46.104;12.908;2022-12-18T10:19:59;6.90;99.90
33093;DHT22;19456;46.104;12.908;2022-12-18T10:22:34;7.00;99.90
33093;DHT22;19456;46.104;12.908;2022-12-18T10:27:29;7.30;99.90
33093;DHT22;19456;46.104;12.908;2022-12-18T10:29:56;7.30;99.90
33093;DHT22;19456;46.104;12.908;2022-12-18T10:32:26;7.40;99.90
33093;DHT22;19456;46.104;12.908;2022-12-18T10:34:53;7.50;99.90
33093;DHT22;19456;46.104;12.908;2022-12-18T10:37:20;7.60;99.90
33093;DHT22;19456;46.104;12.908;2022-12-18T10:39:47;7.60;99.90
33093;DHT22;19456;46.104;12.908;2022-12-18T10:42:29;7.70;99.90
33093;DHT22;19456;46.104;12.908;2022-12-18T10:45:28;7.80;99.90
33093;DHT22;19456;46.104;12.908;2022-12-18T10:47:49;7.90;99.90
33093;DHT22;19456;46.104;12.908;2022-12-18T10:50:19;7.80;99.90
33093;DHT22;19456;46.104;12.908;2022-12-18T10:52:45;8.00;99.90
33093;DHT22;19456;46.104;12.908;2022-12-18T10:55:17;8.20;99.90
33093;DHT22;19456;46.104;12.908;2022-12-18T10:57:43;8.60;99.90
33093;DHT22;19456;46.104;12.908;2022-12-18T11:02:44;8.60;99.90
33093;DHT22;19456;46.104;12.908;2022-12-18T11:05:24;9.40;99.90
33093;DHT22;19456;46.104;12.908;2022-12-18T11:07:50;10.10;99.90
33093;DHT22;19456;46.104;12.908;2022-12-18T11:10:16;10.40;99.90
33093;DHT22;19456;46.104;12.908;2022-12-18T11:12:43;10.40;99.90
33093;DHT22;19456;46.104;12.908;2022-12-18T11:15:16;10.60;99.90
33093;DHT22;19456;46.104;12.908;2022-12-18T11:17:44;11.30;99.90
33093;DHT22;19456;46.104;12.908;2022-12-18T11:20:32;11.60;99.90
33093;DHT22;19456;46.104;12.908;2022-12-18T11:23:20;11.80;99.90
33093;DHT22;19456;46.104;12.908;2022-12-18T11:25:51;12.80;99.90
33093;DHT22;19456;46.104;12.908;2022-12-18T11:33:33;13.80;99.90
33093;DHT22;19456;46.104;12.908;2022-12-18T11:36:11;14.40;99.90
33093;DHT22;19456;46.104;12.908;2022-12-18T11:38:38;14.60;99.90
33093;DHT22;19456;46.104;12.908;2022-12-18T11:41:14;14.50;99.90
33093;DHT22;19456;46.104;12.908;2022-12-18T11:43:43;13.70;99.90
33093;DHT22;19456;46.104;12.908;2022-12-18T11:46:12;13.10;99.90
33093;DHT22;19456;46.104;12.908;2022-12-18T11:54:25;14.30;99.90
33093;DHT22;19456;46.104;12.908;2022-12-18T12:19:05;19.00;88.60
33093;DHT22;19456;46.104;12.908;2022-12-18T12:21:50;18.20;88.50
33093;DHT22;19456;46.104;12.908;2022-12-18T12:30:03;20.00;77.80
33093;DHT22;19456;46.104;12.908;2022-12-18T12:35:44;19.50;75.40
33093;DHT22;19456;46.104;12.908;2022-12-18T12:38:31;19.90;72.70
33093;DHT22;19456;46.104;12.908;2022-12-18T12:41:00;20.00;71.80
33093;DHT22;19456;46.104;12.908;2022-12-18T12:45:54;20.30;73.40
33093;DHT22;19456;46.104;12.908;2022-12-18T12:51:28;20.70;68.40
33093;DHT22;19456;46.104;12.908;2022-12-18T12:53:58;20.90;69.60
33093;DHT22;19456;46.104;12.908;2022-12-18T12:56:47;20.80;71.60
33093;DHT22;19456;46.104;12.908;2022-12-18T13:04:38;20.50;69.60
33093;DHT22;19456;46.104;12.908;2022-12-18T13:07:11;20.20;69.80
33093;DHT22;19456;46.104;12.908;2022-12-18T13:10:11;19.90;70.60
33093;DHT22;19456;46.104;12.908;2022-12-18T13:12:55;19.70;72.40
33093;DHT22;19456;46.104;12.908;2022-12-18T13:15:21;20.20;71.40
33093;DHT22;19456;46.104;12.908;2022-12-18T13:25:48;21.20;67.30
33093;DHT22;19456;46.104;12.908;2022-12-18T13:30:56;21.10;65.80
33093;DHT22;19456;46.104;12.908;2022-12-18T13:49:51;18.40;71.30
33093;DHT22;19456;46.104;12.908;2022-12-18T13:51:53;16.80;74.10
33093;DHT22;19456;46.104;12.908;2022-12-18T13:56:46;14.00;84.00
33093;DHT22;19456;46.104;12.908;2022-12-18T13:59:23;12.90;90.40
33093;DHT22;19456;46.104;12.908;2022-12-18T14:01:56;12.10;93.50
33093;DHT22;19456;46.104;12.908;2022-12-18T14:04:27;11.80;93.40
33093;DHT22;19456;46.104;12.908;2022-12-18T14:06:57;11.60;95.20
33093;DHT22;19456;46.104;12.908;2022-12-18T14:09:28;11.40;98.20
33093;DHT22;19456;46.104;12.908;2022-12-18T14:11:54;11.20;99.20
33093;DHT22;19456;46.104;12.908;2022-12-18T14:14:43;10.90;98.60
33093;DHT22;19456;46.104;12.908;2022-12-18T14:17:10;10.80;99.90
33093;DHT22;19456;46.104;12.908;2022-12-18T14:19:36;10.30;99.90
33093;DHT22;19456;46.104;12.908;2022-12-18T14:22:01;10.00;99.90
33093;DHT22;19456;46.104;12.908;2022-12-18T14:24:27;9.70;99.90
33093;DHT22;19456;46.104;12.908;2022-12-18T14:26:54;9.60;99.90
33093;DHT22;19456;46.104;12.908;2022-12-18T14:29:37;9.30;99.90
33093;DHT22;19456;46.104;12.908;2022-12-18T14:34:37;8.90;99.90
33093;DHT22;19456;46.104;12.908;2022-12-18T14:37:03;8.70;99.90
33093;DHT22;19456;46.104;12.908;2022-12-18T14:42:13;8.40;99.90
33093;DHT22;19456;46.104;12.908;2022-12-18T14:44:38;8.20;99.90
33093;DHT22;19456;46.104;12.908;2022-12-18T14:47:04;8.00;99.90
33093;DHT22;19456;46.104;12.908;2022-12-18T14:49:30;7.90;99.90
33093;DHT22;19456;46.104;12.908;2022-12-18T14:51:57;7.80;99.90
33093;DHT22;19456;46.104;12.908;2022-12-18T14:54:25;7.90;99.90
33093;DHT22;19456;46.104;12.908;2022-12-18T14:56:56;7.90;99.90
33093;DHT22;19456;46.104;12.908;2022-12-18T14:59:26;7.90;99.90
33093;DHT22;19456;46.104;12.908;2022-12-18T15:02:03;7.80;99.90
33093;DHT22;19456;46.104;12.908;2022-12-18T15:09:59;7.50;99.90
33093;DHT22;19456;46.104;12.908;2022-12-18T15:13:09;7.40;99.90
33093;DHT22;19456;46.104;12.908;2022-12-18T15:18:18;7.20;99.90
33093;DHT22;19456;46.104;12.908;2022-12-18T15:21:19;7.20;99.90
33093;DHT22;19456;46.104;12.908;2022-12-18T15:26:09;7.00;99.90
33093;DHT22;19456;46.104;12.908;2022-12-18T15:28:59;6.90;99.90
33093;DHT22;19456;46.104;12.908;2022-12-18T15:31:37;6.80;99.90
33093;DHT22;19456;46.104;12.908;2022-12-18T15:37:20;6.70;99.90
33093;DHT22;19456;46.104;12.908;2022-12-18T15:40:20;6.40;99.90
33093;DHT22;19456;46.104;12.908;2022-12-18T15:42:38;6.30;99.90
33093;DHT22;19456;46.104;12.908;2022-12-18T15:45:22;6.10;99.90
33093;DHT22;19456;46.104;12.908;2022-12-18T15:47:51;6.10;99.90
33093;DHT22;19456;46.104;12.908;2022-12-18T15:50:41;6.10;99.90
33093;DHT22;19456;46.104;12.908;2022-12-18T15:55:58;6.10;99.90
33093;DHT22;19456;46.104;12.908;2022-12-18T15:58:42;6.00;99.90
33093;DHT22;19456;46.104;12.908;2022-12-18T16:01:08;6.00;99.90
33093;DHT22;19456;46.104;12.908;2022-12-18T16:09:47;6.00;99.90
33093;DHT22;19456;46.104;12.908;2022-12-18T16:18:03;5.90;99.90
33093;DHT22;19456;46.104;12.908;2022-12-18T16:20:29;5.70;99.90
33093;DHT22;19456;46.104;12.908;2022-12-18T16:22:58;5.70;99.90
33093;DHT22;19456;46.104;12.908;2022-12-18T16:25:42;5.60;99.90
33093;DHT22;19456;46.104;12.908;2022-12-18T16:28:07;5.60;99.90
33093;DHT22;19456;46.104;12.908;2022-12-18T16:30:33;5.60;99.90
33093;DHT22;19456;46.104;12.908;2022-12-18T16:32:59;5.60;99.90
33093;DHT22;19456;46.104;12.908;2022-12-18T16:35:24;5.60;99.90
33093;DHT22;19456;46.104;12.908;2022-12-18T16:37:50;5.50;99.90
33093;DHT22;19456;46.104;12.908;2022-12-18T16:40:16;5.40;99.90
33093;DHT22;19456;46.104;12.908;2022-12-18T16:42:59;5.20;99.90
33093;DHT22;19456;46.104;12.908;2022-12-18T16:45:25;5.20;99.90
33093;DHT22;19456;46.104;12.908;2022-12-18T16:47:51;5.00;99.90
33093;DHT22;19456;46.104;12.908;2022-12-18T16:50:16;5.10;99.90
33093;DHT22;19456;46.104;12.908;2022-12-18T16:52:42;5.10;99.90
33093;DHT22;19456;46.104;12.908;2022-12-18T16:55:08;4.90;99.90
33093;DHT22;19456;46.104;12.908;2022-12-18T16:57:34;4.90;99.90
33093;DHT22;19456;46.104;12.908;2022-12-18T17:00:02;4.80;99.90
33093;DHT22;19456;46.104;12.908;2022-12-18T17:03:01;4.80;99.90
33093;DHT22;19456;46.104;12.908;2022-12-18T17:05:27;4.70;99.90
33093;DHT22;19456;46.104;12.908;2022-12-18T17:07:53;4.60;99.90
33093;DHT22;19456;46.104;12.908;2022-12-18T17:10:18;4.60;99.90
33093;DHT22;19456;46.104;12.908;2022-12-18T17:12:44;4.50;99.90
33093;DHT22;19456;46.104;12.908;2022-12-18T17:15:25;4.50;99.90
33093;DHT22;19456;46.104;12.908;2022-12-18T17:17:50;4.50;99.90
33093;DHT22;19456;46.104;12.908;2022-12-18T17:23:28;4.40;99.90
33093;DHT22;19456;46.104;12.908;2022-12-18T17:26:09;4.50;99.90
33093;DHT22;19456;46.104;12.908;2022-12-18T17:28:35;4.30;99.90
33093;DHT22;19456;46.104;12.908;2022-12-18T17:37:26;4.40;99.90
33093;DHT22;19456;46.104;12.908;2022-12-18T17:39:51;4.30;99.90
33093;DHT22;19456;46.104;12.908;2022-12-18T17:42:17;4.30;99.90
33093;DHT22;19456;46.104;12.908;2022-12-18T17:44:43;4.20;99.90
33093;DHT22;19456;46.104;12.908;2022-12-18T17:47:14;4.10;99.90
33093;DHT22;19456;46.104;12.908;2022-12-18T17:49:40;4.00;99.90
33093;DHT22;19456;46.104;12.908;2022-12-18T17:52:09;4.00;99.90
33093;DHT22;19456;46.104;12.908;2022-12-18T17:54:35;4.00;99.90
33093;DHT22;19456;46.104;12.908;2022-12-18T17:57:04;3.80;99.90
33093;DHT22;19456;46.104;12.908;2022-12-18T17:59:29;3.40;99.90
33093;DHT22;19456;46.104;12.908;2022-12-18T18:05:02;3.20;99.90
33093;DHT22;19456;46.104;12.908;2022-12-18T18:07:36;3.20;99.90
33093;DHT22;19456;46.104;12.908;2022-12-18T18:10:02;3.20;99.90
33093;DHT22;19456;46.104;12.908;2022-12-18T18:12:28;3.00;99.90
33093;DHT22;19456;46.104;12.908;2022-12-18T18:15:13;2.90;99.90
33093;DHT22;19456;46.104;12.908;2022-12-18T18:17:41;2.90;99.90
33093;DHT22;19456;46.104;12.908;2022-12-18T18:20:09;2.80;99.90
33093;DHT22;19456;46.104;12.908;2022-12-18T18:22:36;2.80;99.90
33093;DHT22;19456;46.104;12.908;2022-12-18T18:25:02;2.70;99.90
33093;DHT22;19456;46.104;12.908;2022-12-18T18:27:29;2.70;99.90